sensor_id;sensor_type;location;lat;lon;timestamp;pressure;altitude;pressure_sealevel;temperature;humidity
21753;BME280;11038;50.940;20.564;2022-10-16T00:01:31;98004.78;;;12.64;86.59
21753;BME280;11038;50.940;20.564;2022-10-16T00:03:05;98003.75;;;12.65;86.72
21753;BME280;11038;50.940;20.564;2022-10-16T00:04:38;98001.91;;;12.65;86.85
21753;BME280;11038;50.940;20.564;2022-10-16T00:06:12;97995.72;;;12.65;86.88
21753;BME280;11038;50.940;20.564;2022-10-16T00:07:52;98000.91;;;12.66;86.90
21753;BME280;11038;50.940;20.564;2022-10-16T00:09:24;98002.56;;;12.67;86.89
21753;BME280;11038;50.940;20.564;2022-10-16T00:11:19;98003.28;;;12.61;86.81
21753;BME280;11038;50.940;20.564;2022-10-16T00:12:51;98003.28;;;12.61;87.02
21753;BME280;11038;50.940;20.564;2022-10-16T00:14:24;98004.63;;;12.57;87.29
21753;BME280;11038;50.940;20.564;2022-10-16T00:15:58;97996.59;;;12.57;87.60
21753;BME280;11038;50.940;20.564;2022-10-16T00:17:30;98004.63;;;12.57;87.78
21753;BME280;11038;50.940;20.564;2022-10-16T00:19:03;98001.97;;;12.57;88.08
21753;BME280;11038;50.940;20.564;2022-10-16T00:20:36;98003.00;;;12.56;87.93
21753;BME280;11038;50.940;20.564;2022-10-16T00:22:09;98010.84;;;12.57;88.11
21753;BME280;11038;50.940;20.564;2022-10-16T00:23:53;98015.00;;;12.60;88.22
21753;BME280;11038;50.940;20.564;2022-10-16T00:25:26;98013.72;;;12.56;88.25
21753;BME280;11038;50.940;20.564;2022-10-16T00:26:59;98012.72;;;12.48;88.67
21753;BME280;11038;50.940;20.564;2022-10-16T00:28:32;98017.97;;;12.42;88.94
21753;BME280;11038;50.940;20.564;2022-10-16T00:30:05;98026.81;;;12.42;89.28
21753;BME280;11038;50.940;20.564;2022-10-16T00:31:38;98015.28;;;12.42;89.58
21753;BME280;11038;50.940;20.564;2022-10-16T00:33:10;98026.50;;;12.37;89.62
21753;BME280;11038;50.940;20.564;2022-10-16T00:34:43;98024.97;;;12.43;89.56
21753;BME280;11038;50.940;20.564;2022-10-16T00:36:19;98028.69;;;12.42;89.88
21753;BME280;11038;50.940;20.564;2022-10-16T00:37:52;98036.72;;;12.42;89.75
21753;BME280;11038;50.940;20.564;2022-10-16T00:39:24;98035.56;;;12.36;89.83
21753;BME280;11038;50.940;20.564;2022-10-16T00:40:57;98031.47;;;12.16;90.59
21753;BME280;11038;50.940;20.564;2022-10-16T00:42:29;98033.47;;;12.23;90.58
21753;BME280;11038;50.940;20.564;2022-10-16T00:46:20;98039.31;;;12.10;91.60
21753;BME280;11038;50.940;20.564;2022-10-16T00:47:55;98036.63;;;12.18;91.45
21753;BME280;11038;50.940;20.564;2022-10-16T00:49:29;98043.38;;;12.14;91.60
21753;BME280;11038;50.940;20.564;2022-10-16T00:51:01;98036.63;;;12.10;91.75
21753;BME280;11038;50.940;20.564;2022-10-16T00:52:35;98037.66;;;12.09;92.06
21753;BME280;11038;50.940;20.564;2022-10-16T00:54:16;98042.19;;;12.08;91.86
21753;BME280;11038;50.940;20.564;2022-10-16T00:55:49;98033.31;;;12.07;92.21
21753;BME280;11038;50.940;20.564;2022-10-16T00:57:22;98037.16;;;12.05;92.41
21753;BME280;11038;50.940;20.564;2022-10-16T00:58:55;98034.34;;;11.98;92.82
21753;BME280;11038;50.940;20.564;2022-10-16T01:00:27;98043.38;;;12.05;92.78
21753;BME280;11038;50.940;20.564;2022-10-16T01:02:02;98034.69;;;12.03;92.84
21753;BME280;11038;50.940;20.564;2022-10-16T01:03:36;98032.66;;;12.05;92.82
21753;BME280;11038;50.940;20.564;2022-10-16T01:05:09;98039.84;;;12.05;92.94
21753;BME280;11038;50.940;20.564;2022-10-16T01:09:28;98038.53;;;12.01;93.08
21753;BME280;11038;50.940;20.564;2022-10-16T01:13:14;98031.31;;;12.01;93.14
21753;BME280;11038;50.940;20.564;2022-10-16T01:15:26;98040.38;;;12.00;93.16
21753;BME280;11038;50.940;20.564;2022-10-16T01:17:19;98041.38;;;11.99;93.38
21753;BME280;11038;50.940;20.564;2022-10-16T01:19:44;98040.06;;;11.95;93.48
21753;BME280;11038;50.940;20.564;2022-10-16T01:21:29;98036.56;;;11.86;93.69
21753;BME280;11038;50.940;20.564;2022-10-16T01:24:49;98030.72;;;11.74;94.82
21753;BME280;11038;50.940;20.564;2022-10-16T01:28:12;98028.88;;;11.74;95.30
21753;BME280;11038;50.940;20.564;2022-10-16T01:30:18;98034.88;;;11.77;95.10
21753;BME280;11038;50.940;20.564;2022-10-16T01:32:13;98035.72;;;11.77;95.45
21753;BME280;11038;50.940;20.564;2022-10-16T01:34:00;98032.91;;;11.79;95.52
21753;BME280;11038;50.940;20.564;2022-10-16T01:35:52;98042.13;;;11.68;95.08
21753;BME280;11038;50.940;20.564;2022-10-16T01:39:29;98042.78;;;11.70;95.02
21753;BME280;11038;50.940;20.564;2022-10-16T01:41:20;98043.28;;;11.73;95.39
21753;BME280;11038;50.940;20.564;2022-10-16T01:43:28;98043.28;;;11.73;95.60
21753;BME280;11038;50.940;20.564;2022-10-16T01:45:05;98037.09;;;11.73;95.53
21753;BME280;11038;50.940;20.564;2022-10-16T01:46:46;98044.63;;;11.69;95.75
21753;BME280;11038;50.940;20.564;2022-10-16T01:48:21;98040.78;;;11.63;95.72
21753;BME280;11038;50.940;20.564;2022-10-16T01:49:56;98043.63;;;11.62;96.16
21753;BME280;11038;50.940;20.564;2022-10-16T01:51:30;98048.16;;;11.61;96.40
21753;BME280;11038;50.940;20.564;2022-10-16T01:53:03;98050.81;;;11.61;96.06
21753;BME280;11038;50.940;20.564;2022-10-16T01:54:40;98048.81;;;11.63;96.24
21753;BME280;11038;50.940;20.564;2022-10-16T01:56:16;98047.66;;;11.58;96.27
21753;BME280;11038;50.940;20.564;2022-10-16T01:57:52;98049.31;;;11.59;96.51
21753;BME280;11038;50.940;20.564;2022-10-16T01:59:28;98052.00;;;11.59;96.69
21753;BME280;11038;50.940;20.564;2022-10-16T02:01:04;98055.66;;;11.58;96.77
21753;BME280;11038;50.940;20.564;2022-10-16T02:02:45;98054.00;;;11.65;96.68
21753;BME280;11038;50.940;20.564;2022-10-16T02:04:47;98057.88;;;11.62;96.55
21753;BME280;11038;50.940;20.564;2022-10-16T02:06:21;98055.50;;;11.68;96.62
21753;BME280;11038;50.940;20.564;2022-10-16T02:07:55;98061.84;;;11.67;96.55
21753;BME280;11038;50.940;20.564;2022-10-16T02:09:33;98059.00;;;11.68;96.46
21753;BME280;11038;50.940;20.564;2022-10-16T02:11:06;98067.22;;;11.67;96.33
21753;BME280;11038;50.940;20.564;2022-10-16T02:14:39;98057.03;;;11.62;96.45
21753;BME280;11038;50.940;20.564;2022-10-16T02:16:13;98065.19;;;11.60;96.59
21753;BME280;11038;50.940;20.564;2022-10-16T02:25:10;98059.19;;;11.42;96.45
21753;BME280;11038;50.940;20.564;2022-10-16T02:28:45;98056.84;;;11.30;97.52
21753;BME280;11038;50.940;20.564;2022-10-16T02:32:30;98053.19;;;11.23;98.10
21753;BME280;11038;50.940;20.564;2022-10-16T02:34:06;98047.84;;;11.23;98.61
21753;BME280;11038;50.940;20.564;2022-10-16T02:35:41;98046.50;;;11.18;98.95
21753;BME280;11038;50.940;20.564;2022-10-16T02:37:17;98044.31;;;11.14;99.29
21753;BME280;11038;50.940;20.564;2022-10-16T02:38:50;98058.53;;;11.14;99.74
21753;BME280;11038;50.940;20.564;2022-10-16T02:40:25;98048.50;;;11.16;99.58
21753;BME280;11038;50.940;20.564;2022-10-16T02:41:58;98063.56;;;11.17;99.92
21753;BME280;11038;50.940;20.564;2022-10-16T02:43:30;98055.19;;;11.12;99.72
21753;BME280;11038;50.940;20.564;2022-10-16T02:45:04;98061.06;;;11.07;100.00
21753;BME280;11038;50.940;20.564;2022-10-16T02:46:37;98062.69;;;11.09;100.00
21753;BME280;11038;50.940;20.564;2022-10-16T02:48:09;98060.88;;;11.09;100.00
21753;BME280;11038;50.940;20.564;2022-10-16T02:49:42;98059.19;;;11.08;100.00
21753;BME280;11038;50.940;20.564;2022-10-16T02:51:14;98055.00;;;11.05;100.00
21753;BME280;11038;50.940;20.564;2022-10-16T02:52:46;98053.00;;;10.91;100.00
21753;BME280;11038;50.940;20.564;2022-10-16T02:54:18;98067.22;;;10.91;100.00
21753;BME280;11038;50.940;20.564;2022-10-16T02:55:51;98062.84;;;10.90;100.00
21753;BME280;11038;50.940;20.564;2022-10-16T02:57:23;98061.34;;;10.88;100.00
21753;BME280;11038;50.940;20.564;2022-10-16T02:58:56;98065.34;;;10.83;100.00
21753;BME280;11038;50.940;20.564;2022-10-16T03:00:28;98064.34;;;10.84;100.00
21753;BME280;11038;50.940;20.564;2022-10-16T03:02:01;98061.16;;;10.81;100.00
21753;BME280;11038;50.940;20.564;2022-10-16T03:03:33;98065.69;;;10.80;100.00
21753;BME280;11038;50.940;20.564;2022-10-16T03:05:06;98074.91;;;10.86;100.00
21753;BME280;11038;50.940;20.564;2022-10-16T03:06:39;98067.34;;;10.81;100.00
21753;BME280;11038;50.940;20.564;2022-10-16T03:08:12;98066.19;;;10.84;100.00
21753;BME280;11038;50.940;20.564;2022-10-16T03:09:45;98070.53;;;10.85;100.00
21753;BME280;11038;50.940;20.564;2022-10-16T03:11:17;98073.88;;;10.87;100.00
21753;BME280;11038;50.940;20.564;2022-10-16T03:12:49;98071.19;;;10.87;100.00
21753;BME280;11038;50.940;20.564;2022-10-16T03:14:21;98069.03;;;10.91;100.00
21753;BME280;11038;50.940;20.564;2022-10-16T03:15:54;98078.22;;;10.88;100.00
21753;BME280;11038;50.940;20.564;2022-10-16T03:17:26;98081.22;;;10.85;100.00
21753;BME280;11038;50.940;20.564;2022-10-16T03:18:59;98075.88;;;10.85;100.00
21753;BME280;11038;50.940;20.564;2022-10-16T03:20:31;98079.22;;;10.87;100.00
21753;BME280;11038;50.940;20.564;2022-10-16T03:22:03;98071.19;;;10.87;100.00
21753;BME280;11038;50.940;20.564;2022-10-16T03:23:36;98074.06;;;10.85;100.00
21753;BME280;11038;50.940;20.564;2022-10-16T03:25:08;98078.69;;;10.83;100.00
21753;BME280;11038;50.940;20.564;2022-10-16T03:26:41;98077.72;;;10.84;100.00
21753;BME280;11038;50.940;20.564;2022-10-16T03:28:16;98077.88;;;10.83;100.00
21753;BME280;11038;50.940;20.564;2022-10-16T03:29:48;98085.59;;;10.86;100.00
21753;BME280;11038;50.940;20.564;2022-10-16T03:31:21;98091.25;;;10.83;100.00
21753;BME280;11038;50.940;20.564;2022-10-16T03:32:53;98091.41;;;10.81;100.00
21753;BME280;11038;50.940;20.564;2022-10-16T03:34:26;98089.75;;;10.80;100.00
21753;BME280;11038;50.940;20.564;2022-10-16T03:35:59;98095.25;;;10.79;100.00
21753;BME280;11038;50.940;20.564;2022-10-16T03:37:32;98095.25;;;10.79;100.00
21753;BME280;11038;50.940;20.564;2022-10-16T03:39:04;98092.41;;;10.80;100.00
21753;BME280;11038;50.940;20.564;2022-10-16T03:40:36;98100.25;;;10.82;100.00
21753;BME280;11038;50.940;20.564;2022-10-16T03:42:08;98105.59;;;10.82;100.00
21753;BME280;11038;50.940;20.564;2022-10-16T03:43:41;98115.31;;;10.83;100.00
21753;BME280;11038;50.940;20.564;2022-10-16T03:45:13;98112.47;;;10.84;100.00
21753;BME280;11038;50.940;20.564;2022-10-16T03:46:45;98114.28;;;10.84;100.00
21753;BME280;11038;50.940;20.564;2022-10-16T03:48:19;98108.81;;;10.85;100.00
21753;BME280;11038;50.940;20.564;2022-10-16T03:49:51;98118.78;;;10.83;100.00
21753;BME280;11038;50.940;20.564;2022-10-16T03:51:23;98120.66;;;10.83;100.00
21753;BME280;11038;50.940;20.564;2022-10-16T03:52:56;98117.28;;;10.81;100.00
21753;BME280;11038;50.940;20.564;2022-10-16T03:54:28;98114.97;;;10.78;100.00
21753;BME280;11038;50.940;20.564;2022-10-16T03:56:01;98116.63;;;10.79;99.90
21753;BME280;11038;50.940;20.564;2022-10-16T03:57:33;98122.50;;;10.82;100.00
21753;BME280;11038;50.940;20.564;2022-10-16T03:59:06;98122.81;;;10.79;99.75
21753;BME280;11038;50.940;20.564;2022-10-16T04:00:42;98118.31;;;10.80;99.74
21753;BME280;11038;50.940;20.564;2022-10-16T04:02:15;98116.13;;;10.83;100.00
21753;BME280;11038;50.940;20.564;2022-10-16T04:03:47;98124.97;;;10.84;100.00
21753;BME280;11038;50.940;20.564;2022-10-16T04:05:20;98122.31;;;10.84;100.00
21753;BME280;11038;50.940;20.564;2022-10-16T04:06:52;98121.66;;;10.82;100.00
21753;BME280;11038;50.940;20.564;2022-10-16T04:08:25;98123.00;;;10.86;99.97
21753;BME280;11038;50.940;20.564;2022-10-16T04:09:57;98129.34;;;10.85;99.75
21753;BME280;11038;50.940;20.564;2022-10-16T04:11:30;98127.00;;;10.82;99.73
21753;BME280;11038;50.940;20.564;2022-10-16T04:13:03;98127.34;;;10.87;99.85
21753;BME280;11038;50.940;20.564;2022-10-16T04:14:35;98137.19;;;10.87;99.91
21753;BME280;11038;50.940;20.564;2022-10-16T04:16:07;98136.38;;;10.86;100.00
21753;BME280;11038;50.940;20.564;2022-10-16T04:17:40;98131.69;;;10.88;99.80
21753;BME280;11038;50.940;20.564;2022-10-16T04:19:12;98135.69;;;10.92;99.95
21753;BME280;11038;50.940;20.564;2022-10-16T04:20:44;98140.59;;;10.97;99.75
21753;BME280;11038;50.940;20.564;2022-10-16T04:22:16;98141.25;;;10.99;99.47
21753;BME280;11038;50.940;20.564;2022-10-16T04:23:49;98132.72;;;11.04;99.60
21753;BME280;11038;50.940;20.564;2022-10-16T04:25:21;98137.72;;;10.99;99.18
21753;BME280;11038;50.940;20.564;2022-10-16T04:26:54;98139.22;;;10.93;99.21
21753;BME280;11038;50.940;20.564;2022-10-16T04:28:27;98131.03;;;10.94;99.33
21753;BME280;11038;50.940;20.564;2022-10-16T04:30:00;98141.75;;;11.03;99.29
21753;BME280;11038;50.940;20.564;2022-10-16T04:31:33;98143.91;;;10.99;99.18
21753;BME280;11038;50.940;20.564;2022-10-16T04:33:06;98139.25;;;11.01;99.00
21753;BME280;11038;50.940;20.564;2022-10-16T04:34:39;98139.41;;;11.00;99.10
21753;BME280;11038;50.940;20.564;2022-10-16T04:36:12;98135.56;;;11.02;98.68
21753;BME280;11038;50.940;20.564;2022-10-16T04:37:45;98135.41;;;11.04;98.99
21753;BME280;11038;50.940;20.564;2022-10-16T04:39:17;98141.06;;;11.01;99.00
21753;BME280;11038;50.940;20.564;2022-10-16T04:40:50;98137.72;;;10.99;98.85
21753;BME280;11038;50.940;20.564;2022-10-16T04:42:22;98132.38;;;10.90;99.10
21753;BME280;11038;50.940;20.564;2022-10-16T04:43:55;98126.03;;;10.91;98.96
21753;BME280;11038;50.940;20.564;2022-10-16T04:45:27;98138.91;;;10.96;99.11
21753;BME280;11038;50.940;20.564;2022-10-16T04:46:59;98125.53;;;10.96;98.82
21753;BME280;11038;50.940;20.564;2022-10-16T04:48:32;98132.06;;;11.02;98.88
21753;BME280;11038;50.940;20.564;2022-10-16T04:50:05;98141.91;;;11.01;98.95
21753;BME280;11038;50.940;20.564;2022-10-16T04:51:38;98138.91;;;10.96;98.79
21753;BME280;11038;50.940;20.564;2022-10-16T04:53:10;98130.56;;;10.99;99.15
21753;BME280;11038;50.940;20.564;2022-10-16T04:54:43;98131.75;;;11.05;99.04
21753;BME280;11038;50.940;20.564;2022-10-16T04:56:17;98129.72;;;11.07;98.99
21753;BME280;11038;50.940;20.564;2022-10-16T04:57:49;98132.06;;;11.02;98.87
21753;BME280;11038;50.940;20.564;2022-10-16T04:59:23;98133.56;;;11.04;99.35
21753;BME280;11038;50.940;20.564;2022-10-16T05:00:55;98136.38;;;11.03;99.10
21753;BME280;11038;50.940;20.564;2022-10-16T05:02:27;98129.22;;;11.03;98.98
21753;BME280;11038;50.940;20.564;2022-10-16T05:04:00;98144.41;;;11.03;99.00
21753;BME280;11038;50.940;20.564;2022-10-16T05:05:33;98136.38;;;11.03;99.02
21753;BME280;11038;50.940;20.564;2022-10-16T05:07:05;98148.94;;;11.02;98.73
21753;BME280;11038;50.940;20.564;2022-10-16T05:08:37;98150.94;;;11.00;99.06
21753;BME280;11038;50.940;20.564;2022-10-16T05:10:10;98148.09;;;11.02;98.96
21753;BME280;11038;50.940;20.564;2022-10-16T05:11:42;98145.78;;;11.07;99.35
21753;BME280;11038;50.940;20.564;2022-10-16T05:13:14;98142.09;;;11.08;99.37
21753;BME280;11038;50.940;20.564;2022-10-16T05:14:47;98142.09;;;11.08;99.42
21753;BME280;11038;50.940;20.564;2022-10-16T05:16:19;98142.09;;;11.08;99.31
21753;BME280;11038;50.940;20.564;2022-10-16T05:17:55;98154.81;;;11.14;99.49
21753;BME280;11038;50.940;20.564;2022-10-16T05:19:27;98154.16;;;11.21;99.41
21753;BME280;11038;50.940;20.564;2022-10-16T05:21:00;98153.97;;;11.22;99.47
21753;BME280;11038;50.940;20.564;2022-10-16T05:22:32;98153.84;;;11.24;99.31
21753;BME280;11038;50.940;20.564;2022-10-16T05:24:04;98150.84;;;11.27;99.44
21753;BME280;11038;50.940;20.564;2022-10-16T05:25:37;98150.00;;;11.26;99.44
21753;BME280;11038;50.940;20.564;2022-10-16T05:27:10;98145.16;;;11.22;98.97
21753;BME280;11038;50.940;20.564;2022-10-16T05:28:43;98149.16;;;11.26;99.13
21753;BME280;11038;50.940;20.564;2022-10-16T05:30:17;98145.81;;;11.32;99.09
21753;BME280;11038;50.940;20.564;2022-10-16T05:31:52;98153.53;;;11.35;98.90
21753;BME280;11038;50.940;20.564;2022-10-16T05:33:25;98150.66;;;11.37;98.83
21753;BME280;11038;50.940;20.564;2022-10-16T05:34:58;98155.69;;;11.40;98.77
21753;BME280;11038;50.940;20.564;2022-10-16T05:36:31;98160.53;;;11.36;98.55
21753;BME280;11038;50.940;20.564;2022-10-16T05:38:03;98151.66;;;11.36;98.64
21753;BME280;11038;50.940;20.564;2022-10-16T05:39:36;98153.66;;;11.34;98.47
21753;BME280;11038;50.940;20.564;2022-10-16T05:42:57;98157.19;;;11.43;98.65
21753;BME280;11038;50.940;20.564;2022-10-16T05:44:29;98166.06;;;11.43;98.59
21753;BME280;11038;50.940;20.564;2022-10-16T05:46:06;98163.06;;;11.46;98.65
21753;BME280;11038;50.940;20.564;2022-10-16T05:47:39;98161.72;;;11.50;98.71
21753;BME280;11038;50.940;20.564;2022-10-16T05:49:11;98169.56;;;11.52;98.61
21753;BME280;11038;50.940;20.564;2022-10-16T05:50:43;98171.91;;;11.55;98.58
21753;BME280;11038;50.940;20.564;2022-10-16T05:52:15;98162.72;;;11.58;98.76
21753;BME280;11038;50.940;20.564;2022-10-16T05:53:48;98163.56;;;11.58;98.55
21753;BME280;11038;50.940;20.564;2022-10-16T05:55:20;98159.88;;;11.59;98.67
21753;BME280;11038;50.940;20.564;2022-10-16T05:56:52;98160.72;;;11.60;98.58
21753;BME280;11038;50.940;20.564;2022-10-16T05:58:28;98168.56;;;11.53;98.46
21753;BME280;11038;50.940;20.564;2022-10-16T06:00:01;98164.72;;;11.56;98.64
21753;BME280;11038;50.940;20.564;2022-10-16T06:01:34;98158.53;;;11.55;98.64
21753;BME280;11038;50.940;20.564;2022-10-16T06:03:07;98174.25;;;11.58;98.58
21753;BME280;11038;50.940;20.564;2022-10-16T06:04:40;98179.28;;;11.61;98.38
21753;BME280;11038;50.940;20.564;2022-10-16T06:06:18;98170.56;;;12.10;98.26
21753;BME280;11038;50.940;20.564;2022-10-16T06:07:51;98168.09;;;12.65;96.90
21753;BME280;11038;50.940;20.564;2022-10-16T06:09:24;98173.34;;;12.99;94.83
21753;BME280;11038;50.940;20.564;2022-10-16T06:11:09;98177.09;;;13.45;92.44
21753;BME280;11038;50.940;20.564;2022-10-16T06:12:41;98173.84;;;13.97;90.10
21753;BME280;11038;50.940;20.564;2022-10-16T06:14:13;98183.59;;;14.13;87.52
21753;BME280;11038;50.940;20.564;2022-10-16T06:15:46;98177.97;;;14.23;85.88
21753;BME280;11038;50.940;20.564;2022-10-16T06:17:18;98193.50;;;14.66;85.87
21753;BME280;11038;50.940;20.564;2022-10-16T06:18:53;98197.09;;;14.74;83.55
21753;BME280;11038;50.940;20.564;2022-10-16T06:20:26;98194.66;;;15.09;83.11
21753;BME280;11038;50.940;20.564;2022-10-16T06:21:58;98195.47;;;15.25;81.49
21753;BME280;11038;50.940;20.564;2022-10-16T06:23:31;98194.72;;;15.75;78.81
21753;BME280;11038;50.940;20.564;2022-10-16T06:25:03;98199.63;;;15.65;76.88
21753;BME280;11038;50.940;20.564;2022-10-16T06:26:37;98206.16;;;15.77;77.23
21753;BME280;11038;50.940;20.564;2022-10-16T06:28:10;98206.75;;;16.23;74.44
21753;BME280;11038;50.940;20.564;2022-10-16T06:29:42;98207.53;;;15.95;74.92
21753;BME280;11038;50.940;20.564;2022-10-16T06:31:16;98219.78;;;16.48;72.90
21753;BME280;11038;50.940;20.564;2022-10-16T06:32:48;98204.88;;;16.53;72.00
21753;BME280;11038;50.940;20.564;2022-10-16T06:34:21;98208.16;;;16.84;72.81
21753;BME280;11038;50.940;20.564;2022-10-16T06:35:53;98203.38;;;16.86;70.62
21753;BME280;11038;50.940;20.564;2022-10-16T06:37:32;98206.69;;;16.81;69.50
21753;BME280;11038;50.940;20.564;2022-10-16T06:39:05;98211.75;;;16.98;69.62
21753;BME280;11038;50.940;20.564;2022-10-16T06:40:39;98212.88;;;16.75;70.67
21753;BME280;11038;50.940;20.564;2022-10-16T06:42:11;98214.88;;;16.59;70.73
21753;BME280;11038;50.940;20.564;2022-10-16T06:43:43;98222.41;;;16.35;70.59
21753;BME280;11038;50.940;20.564;2022-10-16T06:45:18;98222.19;;;15.86;73.30
21753;BME280;11038;50.940;20.564;2022-10-16T06:46:51;98219.59;;;16.21;73.87
21753;BME280;11038;50.940;20.564;2022-10-16T06:48:25;98229.75;;;15.75;73.45
21753;BME280;11038;50.940;20.564;2022-10-16T06:49:57;98229.28;;;15.49;74.97
21753;BME280;11038;50.940;20.564;2022-10-16T06:51:30;98233.59;;;15.66;74.97
21753;BME280;11038;50.940;20.564;2022-10-16T06:53:04;98248.50;;;15.46;75.65
21753;BME280;11038;50.940;20.564;2022-10-16T06:54:36;98243.22;;;15.75;76.03
21753;BME280;11038;50.940;20.564;2022-10-16T06:57:51;98252.66;;;15.49;74.71
21753;BME280;11038;50.940;20.564;2022-10-16T06:59:23;98251.19;;;15.83;74.61
21753;BME280;11038;50.940;20.564;2022-10-16T07:00:56;98253.03;;;15.24;75.32
21753;BME280;11038;50.940;20.564;2022-10-16T07:02:29;98254.00;;;15.38;76.73
21753;BME280;11038;50.940;20.564;2022-10-16T07:04:02;98263.50;;;15.19;76.69
21753;BME280;11038;50.940;20.564;2022-10-16T07:05:39;98256.34;;;15.26;76.82
21753;BME280;11038;50.940;20.564;2022-10-16T07:07:11;98255.59;;;15.32;76.60
21753;BME280;11038;50.940;20.564;2022-10-16T07:08:46;98261.63;;;15.34;77.18
21753;BME280;11038;50.940;20.564;2022-10-16T07:10:19;98267.22;;;15.70;77.54
21753;BME280;11038;50.940;20.564;2022-10-16T07:11:52;98267.66;;;15.36;76.74
21753;BME280;11038;50.940;20.564;2022-10-16T07:13:24;98272.19;;;15.36;76.75
21753;BME280;11038;50.940;20.564;2022-10-16T07:14:56;98276.38;;;15.38;76.63
21753;BME280;11038;50.940;20.564;2022-10-16T07:16:32;98275.31;;;15.18;76.99
21753;BME280;11038;50.940;20.564;2022-10-16T07:18:04;98274.09;;;15.20;77.80
21753;BME280;11038;50.940;20.564;2022-10-16T07:19:37;98270.47;;;15.28;77.94
21753;BME280;11038;50.940;20.564;2022-10-16T07:21:20;98274.00;;;15.13;77.98
21753;BME280;11038;50.940;20.564;2022-10-16T07:22:53;98256.38;;;14.96;78.70
21753;BME280;11038;50.940;20.564;2022-10-16T07:24:25;98262.28;;;14.76;78.79
21753;BME280;11038;50.940;20.564;2022-10-16T07:25:58;98264.78;;;14.47;79.38
21753;BME280;11038;50.940;20.564;2022-10-16T07:27:30;98266.91;;;14.52;80.82
21753;BME280;11038;50.940;20.564;2022-10-16T07:29:02;98258.31;;;14.71;81.14
21753;BME280;11038;50.940;20.564;2022-10-16T07:30:36;98261.00;;;14.71;80.94
21753;BME280;11038;50.940;20.564;2022-10-16T07:32:09;98258.84;;;14.67;81.13
21753;BME280;11038;50.940;20.564;2022-10-16T07:33:43;98270.25;;;14.84;81.69
21753;BME280;11038;50.940;20.564;2022-10-16T07:35:17;98266.31;;;14.95;81.42
21753;BME280;11038;50.940;20.564;2022-10-16T07:36:50;98263.13;;;14.76;80.64
21753;BME280;11038;50.940;20.564;2022-10-16T07:38:22;98267.03;;;14.74;81.59
21753;BME280;11038;50.940;20.564;2022-10-16T07:39:54;98279.06;;;14.63;81.47
21753;BME280;11038;50.940;20.564;2022-10-16T07:41:27;98275.91;;;14.59;81.90
21753;BME280;11038;50.940;20.564;2022-10-16T07:43:00;98272.69;;;14.64;82.32
21753;BME280;11038;50.940;20.564;2022-10-16T07:44:34;98267.81;;;14.44;82.01
21753;BME280;11038;50.940;20.564;2022-10-16T07:46:06;98275.16;;;14.65;82.63
21753;BME280;11038;50.940;20.564;2022-10-16T07:47:38;98269.13;;;14.48;82.76
21753;BME280;11038;50.940;20.564;2022-10-16T07:49:11;98275.97;;;14.50;83.38
21753;BME280;11038;50.940;20.564;2022-10-16T07:50:44;98277.09;;;14.41;82.55
21753;BME280;11038;50.940;20.564;2022-10-16T07:52:16;98278.16;;;14.32;83.35
21753;BME280;11038;50.940;20.564;2022-10-16T07:53:49;98271.34;;;14.44;83.28
21753;BME280;11038;50.940;20.564;2022-10-16T07:55:21;98276.94;;;14.58;83.06
21753;BME280;11038;50.940;20.564;2022-10-16T07:56:54;98279.16;;;14.54;83.73
21753;BME280;11038;50.940;20.564;2022-10-16T07:58:28;98273.03;;;14.76;83.23
21753;BME280;11038;50.940;20.564;2022-10-16T08:00:00;98280.56;;;14.65;83.14
21753;BME280;11038;50.940;20.564;2022-10-16T08:01:33;98282.59;;;14.63;82.22
21753;BME280;11038;50.940;20.564;2022-10-16T08:03:05;98273.78;;;14.85;83.00
21753;BME280;11038;50.940;20.564;2022-10-16T08:04:37;98278.56;;;14.98;82.63
21753;BME280;11038;50.940;20.564;2022-10-16T08:06:10;98284.88;;;14.90;81.99
21753;BME280;11038;50.940;20.564;2022-10-16T08:07:42;98289.41;;;15.20;82.33
21753;BME280;11038;50.940;20.564;2022-10-16T08:09:14;98294.31;;;15.01;82.79
21753;BME280;11038;50.940;20.564;2022-10-16T08:10:47;98296.28;;;15.07;82.47
21753;BME280;11038;50.940;20.564;2022-10-16T08:12:19;98292.66;;;15.15;83.21
21753;BME280;11038;50.940;20.564;2022-10-16T08:13:51;98300.53;;;15.16;82.14
21753;BME280;11038;50.940;20.564;2022-10-16T08:15:24;98298.78;;;15.09;82.54
21753;BME280;11038;50.940;20.564;2022-10-16T08:16:56;98304.91;;;15.02;82.61
21753;BME280;11038;50.940;20.564;2022-10-16T08:18:28;98297.66;;;14.88;82.78
21753;BME280;11038;50.940;20.564;2022-10-16T08:20:00;98303.41;;;15.15;83.30
21753;BME280;11038;50.940;20.564;2022-10-16T08:21:33;98312.25;;;15.24;82.31
21753;BME280;11038;50.940;20.564;2022-10-16T08:23:06;98313.81;;;15.18;82.15
21753;BME280;11038;50.940;20.564;2022-10-16T08:24:38;98317.06;;;15.29;82.92
21753;BME280;11038;50.940;20.564;2022-10-16T08:26:12;98316.13;;;15.21;81.83
21753;BME280;11038;50.940;20.564;2022-10-16T08:27:44;98313.78;;;15.33;81.96
21753;BME280;11038;50.940;20.564;2022-10-16T08:29:16;98311.19;;;15.25;81.12
21753;BME280;11038;50.940;20.564;2022-10-16T08:30:49;98311.09;;;15.33;81.62
21753;BME280;11038;50.940;20.564;2022-10-16T08:32:21;98313.78;;;15.48;81.76
21753;BME280;11038;50.940;20.564;2022-10-16T08:33:58;98309.94;;;15.58;81.32
21753;BME280;11038;50.940;20.564;2022-10-16T08:35:30;98311.09;;;15.48;80.70
21753;BME280;11038;50.940;20.564;2022-10-16T08:37:03;98314.81;;;15.32;80.51
21753;BME280;11038;50.940;20.564;2022-10-16T08:38:35;98319.91;;;15.42;81.37
21753;BME280;11038;50.940;20.564;2022-10-16T08:40:20;98324.72;;;15.62;81.38
21753;BME280;11038;50.940;20.564;2022-10-16T08:47:39;98317.59;;;15.76;80.81